sensor_id;sensor_type;location;lat;lon;timestamp;temperature;humidity
10263;DHT22;5177;50.068;8.156;2023-08-01T00:01:59;17.20;99.90
10263;DHT22;5177;50.068;8.156;2023-08-01T00:04:25;17.20;99.90
10263;DHT22;5177;50.068;8.156;2023-08-01T00:06:50;17.30;99.90
10263;DHT22;5177;50.068;8.156;2023-08-01T00:09:16;17.20;99.90
10263;DHT22;5177;50.068;8.156;2023-08-01T00:11:41;17.20;99.90
10263;DHT22;5177;50.068;8.156;2023-08-01T00:14:07;17.20;99.90
10263;DHT22;5177;50.068;8.156;2023-08-01T00:16:32;17.10;99.90
10263;DHT22;5177;50.068;8.156;2023-08-01T00:18:58;17.10;99.90
10263;DHT22;5177;50.068;8.156;2023-08-01T00:21:23;17.10;99.90
10263;DHT22;5177;50.068;8.156;2023-08-01T00:23:49;17.10;99.90
10263;DHT22;5177;50.068;8.156;2023-08-01T00:26:14;17.10;99.90
10263;DHT22;5177;50.068;8.156;2023-08-01T00:28:40;17.10;99.90
10263;DHT22;5177;50.068;8.156;2023-08-01T00:31:06;17.10;99.90
10263;DHT22;5177;50.068;8.156;2023-08-01T00:33:32;17.10;99.90
10263;DHT22;5177;50.068;8.156;2023-08-01T00:35:58;17.10;99.90
10263;DHT22;5177;50.068;8.156;2023-08-01T00:38:23;17.10;99.90
10263;DHT22;5177;50.068;8.156;2023-08-01T00:40:49;17.10;99.90
10263;DHT22;5177;50.068;8.156;2023-08-01T00:43:15;17.20;99.90
10263;DHT22;5177;50.068;8.156;2023-08-01T00:45:41;17.20;99.90
10263;DHT22;5177;50.068;8.156;2023-08-01T00:48:06;17.20;99.90
10263;DHT22;5177;50.068;8.156;2023-08-01T00:50:32;17.20;99.90
10263;DHT22;5177;50.068;8.156;2023-08-01T00:52:58;17.20;99.90
10263;DHT22;5177;50.068;8.156;2023-08-01T00:55:23;17.20;99.90
10263;DHT22;5177;50.068;8.156;2023-08-01T00:57:49;17.20;99.90
10263;DHT22;5177;50.068;8.156;2023-08-01T01:00:15;17.20;99.90
10263;DHT22;5177;50.068;8.156;2023-08-01T01:02:40;17.20;99.90
10263;DHT22;5177;50.068;8.156;2023-08-01T01:05:06;17.20;99.90
10263;DHT22;5177;50.068;8.156;2023-08-01T01:07:31;17.20;99.90
10263;DHT22;5177;50.068;8.156;2023-08-01T01:09:58;17.30;99.90
10263;DHT22;5177;50.068;8.156;2023-08-01T01:12:24;17.30;99.90
10263;DHT22;5177;50.068;8.156;2023-08-01T01:14:49;17.30;99.90
10263;DHT22;5177;50.068;8.156;2023-08-01T01:17:15;17.20;99.90
10263;DHT22;5177;50.068;8.156;2023-08-01T01:19:40;17.20;99.90
10263;DHT22;5177;50.068;8.156;2023-08-01T01:22:06;17.20;99.90
10263;DHT22;5177;50.068;8.156;2023-08-01T01:24:33;17.20;99.90
10263;DHT22;5177;50.068;8.156;2023-08-01T01:26:59;17.20;99.90
10263;DHT22;5177;50.068;8.156;2023-08-01T01:29:26;17.20;99.90
10263;DHT22;5177;50.068;8.156;2023-08-01T01:31:51;17.20;99.90
10263;DHT22;5177;50.068;8.156;2023-08-01T01:34:17;17.30;99.90
10263;DHT22;5177;50.068;8.156;2023-08-01T01:36:43;17.30;99.90
10263;DHT22;5177;50.068;8.156;2023-08-01T01:39:08;17.30;99.90
10263;DHT22;5177;50.068;8.156;2023-08-01T01:41:34;17.30;99.90
10263;DHT22;5177;50.068;8.156;2023-08-01T01:43:59;17.30;99.90
10263;DHT22;5177;50.068;8.156;2023-08-01T01:46:25;17.30;99.90
10263;DHT22;5177;50.068;8.156;2023-08-01T01:48:50;17.30;99.90
10263;DHT22;5177;50.068;8.156;2023-08-01T01:51:16;17.30;99.90
10263;DHT22;5177;50.068;8.156;2023-08-01T01:53:41;17.30;99.90
10263;DHT22;5177;50.068;8.156;2023-08-01T01:56:07;17.20;99.90
10263;DHT22;5177;50.068;8.156;2023-08-01T01:58:33;17.30;99.90
10263;DHT22;5177;50.068;8.156;2023-08-01T02:00:58;17.50;99.90
10263;DHT22;5177;50.068;8.156;2023-08-01T02:03:23;17.40;99.90
10263;DHT22;5177;50.068;8.156;2023-08-01T02:05:49;17.40;99.90
10263;DHT22;5177;50.068;8.156;2023-08-01T02:08:14;17.40;99.90
10263;DHT22;5177;50.068;8.156;2023-08-01T02:10:40;17.40;99.90
10263;DHT22;5177;50.068;8.156;2023-08-01T02:13:06;17.40;99.90
10263;DHT22;5177;50.068;8.156;2023-08-01T02:15:31;17.40;99.90
10263;DHT22;5177;50.068;8.156;2023-08-01T02:17:57;17.40;99.90
10263;DHT22;5177;50.068;8.156;2023-08-01T02:20:23;17.40;99.90
10263;DHT22;5177;50.068;8.156;2023-08-01T02:22:48;17.40;99.90
10263;DHT22;5177;50.068;8.156;2023-08-01T02:25:14;17.50;99.90
10263;DHT22;5177;50.068;8.156;2023-08-01T02:27:39;17.50;99.90
10263;DHT22;5177;50.068;8.156;2023-08-01T02:30:05;17.50;99.90
10263;DHT22;5177;50.068;8.156;2023-08-01T02:32:30;17.40;99.90
10263;DHT22;5177;50.068;8.156;2023-08-01T02:34:56;17.40;99.90
10263;DHT22;5177;50.068;8.156;2023-08-01T02:37:21;17.40;99.90
10263;DHT22;5177;50.068;8.156;2023-08-01T02:39:47;17.40;99.90
10263;DHT22;5177;50.068;8.156;2023-08-01T02:42:12;17.40;99.90
10263;DHT22;5177;50.068;8.156;2023-08-01T02:44:38;17.50;99.90
10263;DHT22;5177;50.068;8.156;2023-08-01T02:47:03;17.50;99.90
10263;DHT22;5177;50.068;8.156;2023-08-01T02:49:29;17.50;99.90
10263;DHT22;5177;50.068;8.156;2023-08-01T02:51:54;17.50;99.90
10263;DHT22;5177;50.068;8.156;2023-08-01T02:54:20;17.50;99.90
10263;DHT22;5177;50.068;8.156;2023-08-01T02:56:45;17.50;99.90
10263;DHT22;5177;50.068;8.156;2023-08-01T02:59:11;17.60;99.90
10263;DHT22;5177;50.068;8.156;2023-08-01T03:01:37;17.60;99.90
10263;DHT22;5177;50.068;8.156;2023-08-01T03:04:03;17.60;99.90
10263;DHT22;5177;50.068;8.156;2023-08-01T03:06:30;17.60;99.90
10263;DHT22;5177;50.068;8.156;2023-08-01T03:08:55;17.70;99.90
10263;DHT22;5177;50.068;8.156;2023-08-01T03:11:21;17.70;99.90
10263;DHT22;5177;50.068;8.156;2023-08-01T03:13:46;17.70;99.90
10263;DHT22;5177;50.068;8.156;2023-08-01T03:16:12;17.70;99.90
10263;DHT22;5177;50.068;8.156;2023-08-01T03:18:37;17.70;99.90
10263;DHT22;5177;50.068;8.156;2023-08-01T03:21:03;17.80;99.90
10263;DHT22;5177;50.068;8.156;2023-08-01T03:23:29;17.80;99.90
10263;DHT22;5177;50.068;8.156;2023-08-01T03:25:55;17.80;99.90
10263;DHT22;5177;50.068;8.156;2023-08-01T03:28:20;17.80;99.90
10263;DHT22;5177;50.068;8.156;2023-08-01T03:30:46;17.80;99.90
10263;DHT22;5177;50.068;8.156;2023-08-01T03:33:15;17.90;99.90
10263;DHT22;5177;50.068;8.156;2023-08-01T03:35:40;17.90;99.90
10263;DHT22;5177;50.068;8.156;2023-08-01T03:38:06;17.90;99.90
10263;DHT22;5177;50.068;8.156;2023-08-01T03:40:31;17.90;99.90
10263;DHT22;5177;50.068;8.156;2023-08-01T03:42:57;17.90;99.90
10263;DHT22;5177;50.068;8.156;2023-08-01T03:45:22;17.80;99.90
10263;DHT22;5177;50.068;8.156;2023-08-01T03:47:48;17.90;99.90
10263;DHT22;5177;50.068;8.156;2023-08-01T03:50:13;17.90;99.90
10263;DHT22;5177;50.068;8.156;2023-08-01T03:52:39;17.80;99.90
10263;DHT22;5177;50.068;8.156;2023-08-01T03:55:04;17.80;99.90
10263;DHT22;5177;50.068;8.156;2023-08-01T03:57:30;17.80;99.90
10263;DHT22;5177;50.068;8.156;2023-08-01T04:00:00;17.80;99.90
10263;DHT22;5177;50.068;8.156;2023-08-01T04:02:25;17.80;99.90
10263;DHT22;5177;50.068;8.156;2023-08-01T04:04:51;17.80;99.90
10263;DHT22;5177;50.068;8.156;2023-08-01T04:07:16;17.80;99.90
10263;DHT22;5177;50.068;8.156;2023-08-01T04:09:42;17.90;99.90
10263;DHT22;5177;50.068;8.156;2023-08-01T04:12:07;17.70;99.90
10263;DHT22;5177;50.068;8.156;2023-08-01T04:14:33;17.70;99.90
10263;DHT22;5177;50.068;8.156;2023-08-01T04:16:59;17.70;99.90
10263;DHT22;5177;50.068;8.156;2023-08-01T04:19:24;17.70;99.90
10263;DHT22;5177;50.068;8.156;2023-08-01T04:21:50;17.60;99.90
10263;DHT22;5177;50.068;8.156;2023-08-01T04:24:15;17.60;99.90
10263;DHT22;5177;50.068;8.156;2023-08-01T04:26:41;17.60;99.90
10263;DHT22;5177;50.068;8.156;2023-08-01T04:29:07;17.60;99.90
10263;DHT22;5177;50.068;8.156;2023-08-01T04:31:32;17.70;99.90
10263;DHT22;5177;50.068;8.156;2023-08-01T04:33:57;17.60;99.90
10263;DHT22;5177;50.068;8.156;2023-08-01T04:36:23;17.60;99.90
10263;DHT22;5177;50.068;8.156;2023-08-01T04:38:48;17.60;99.90
10263;DHT22;5177;50.068;8.156;2023-08-01T04:41:14;17.60;99.90
10263;DHT22;5177;50.068;8.156;2023-08-01T04:43:39;17.60;99.90
10263;DHT22;5177;50.068;8.156;2023-08-01T04:46:05;17.60;99.90
10263;DHT22;5177;50.068;8.156;2023-08-01T04:48:33;17.60;99.90
10263;DHT22;5177;50.068;8.156;2023-08-01T04:50:59;17.60;99.90
10263;DHT22;5177;50.068;8.156;2023-08-01T04:53:24;17.60;99.90
10263;DHT22;5177;50.068;8.156;2023-08-01T04:55:50;17.50;99.90
10263;DHT22;5177;50.068;8.156;2023-08-01T04:58:16;17.50;99.90
10263;DHT22;5177;50.068;8.156;2023-08-01T05:00:41;17.50;99.90
10263;DHT22;5177;50.068;8.156;2023-08-01T05:03:07;17.50;99.90
10263;DHT22;5177;50.068;8.156;2023-08-01T05:05:33;17.50;99.90
10263;DHT22;5177;50.068;8.156;2023-08-01T05:07:58;17.50;99.90
10263;DHT22;5177;50.068;8.156;2023-08-01T05:10:24;17.50;99.90
10263;DHT22;5177;50.068;8.156;2023-08-01T05:12:49;17.50;99.90
10263;DHT22;5177;50.068;8.156;2023-08-01T05:15:15;17.50;99.90
10263;DHT22;5177;50.068;8.156;2023-08-01T05:17:40;17.50;99.90
10263;DHT22;5177;50.068;8.156;2023-08-01T05:20:06;17.50;99.90
10263;DHT22;5177;50.068;8.156;2023-08-01T05:22:32;17.50;99.90
10263;DHT22;5177;50.068;8.156;2023-08-01T05:24:57;17.50;99.90
10263;DHT22;5177;50.068;8.156;2023-08-01T05:27:23;17.50;99.90
10263;DHT22;5177;50.068;8.156;2023-08-01T05:29:48;17.50;99.90
10263;DHT22;5177;50.068;8.156;2023-08-01T05:32:14;17.60;99.90
10263;DHT22;5177;50.068;8.156;2023-08-01T05:34:39;17.60;99.90
10263;DHT22;5177;50.068;8.156;2023-08-01T05:37:05;17.60;99.90
10263;DHT22;5177;50.068;8.156;2023-08-01T05:39:30;17.60;99.90
10263;DHT22;5177;50.068;8.156;2023-08-01T05:41:55;17.60;99.90
10263;DHT22;5177;50.068;8.156;2023-08-01T05:44:21;17.50;99.90
10263;DHT22;5177;50.068;8.156;2023-08-01T05:46:47;17.50;99.90
10263;DHT22;5177;50.068;8.156;2023-08-01T05:49:12;17.50;99.90
10263;DHT22;5177;50.068;8.156;2023-08-01T05:51:37;17.40;99.90
10263;DHT22;5177;50.068;8.156;2023-08-01T05:54:03;17.40;99.90
10263;DHT22;5177;50.068;8.156;2023-08-01T05:56:28;17.50;99.90
10263;DHT22;5177;50.068;8.156;2023-08-01T05:58:54;17.50;99.90
10263;DHT22;5177;50.068;8.156;2023-08-01T06:01:21;17.50;99.90
10263;DHT22;5177;50.068;8.156;2023-08-01T06:03:47;17.50;99.90
10263;DHT22;5177;50.068;8.156;2023-08-01T06:06:12;17.50;99.90
10263;DHT22;5177;50.068;8.156;2023-08-01T06:08:38;17.50;99.90
10263;DHT22;5177;50.068;8.156;2023-08-01T06:11:03;17.50;99.90
10263;DHT22;5177;50.068;8.156;2023-08-01T06:13:28;17.50;99.90
10263;DHT22;5177;50.068;8.156;2023-08-01T06:15:54;17.40;99.90
10263;DHT22;5177;50.068;8.156;2023-08-01T06:18:19;17.40;99.90
10263;DHT22;5177;50.068;8.156;2023-08-01T06:20:45;17.40;99.90
10263;DHT22;5177;50.068;8.156;2023-08-01T06:23:10;17.40;99.90
10263;DHT22;5177;50.068;8.156;2023-08-01T06:25:36;17.30;99.90
10263;DHT22;5177;50.068;8.156;2023-08-01T06:28:01;17.40;99.90
10263;DHT22;5177;50.068;8.156;2023-08-01T06:30:27;17.40;99.90
10263;DHT22;5177;50.068;8.156;2023-08-01T06:32:52;17.30;99.90
10263;DHT22;5177;50.068;8.156;2023-08-01T06:35:18;17.40;99.90
10263;DHT22;5177;50.068;8.156;2023-08-01T06:37:43;17.40;99.90
10263;DHT22;5177;50.068;8.156;2023-08-01T06:40:09;17.50;99.90
10263;DHT22;5177;50.068;8.156;2023-08-01T06:42:34;17.50;99.90
10263;DHT22;5177;50.068;8.156;2023-08-01T06:45:00;17.50;99.90
10263;DHT22;5177;50.068;8.156;2023-08-01T06:47:25;17.70;99.90
10263;DHT22;5177;50.068;8.156;2023-08-01T06:49:51;17.70;99.90
10263;DHT22;5177;50.068;8.156;2023-08-01T06:52:16;17.80;99.90
10263;DHT22;5177;50.068;8.156;2023-08-01T06:54:42;17.90;99.90
10263;DHT22;5177;50.068;8.156;2023-08-01T06:57:07;18.00;99.90
10263;DHT22;5177;50.068;8.156;2023-08-01T06:59:33;18.10;99.90
10263;DHT22;5177;50.068;8.156;2023-08-01T07:01:58;18.20;99.90
10263;DHT22;5177;50.068;8.156;2023-08-01T07:04:24;18.20;99.90
10263;DHT22;5177;50.068;8.156;2023-08-01T07:06:50;18.30;99.90
10263;DHT22;5177;50.068;8.156;2023-08-01T07:09:15;18.30;99.90
10263;DHT22;5177;50.068;8.156;2023-08-01T07:11:40;18.40;99.90
10263;DHT22;5177;50.068;8.156;2023-08-01T07:14:06;18.50;99.90
10263;DHT22;5177;50.068;8.156;2023-08-01T07:16:31;18.40;99.90
10263;DHT22;5177;50.068;8.156;2023-08-01T07:18:59;18.50;99.90
10263;DHT22;5177;50.068;8.156;2023-08-01T07:21:25;18.50;99.90
10263;DHT22;5177;50.068;8.156;2023-08-01T07:23:51;18.40;99.90
10263;DHT22;5177;50.068;8.156;2023-08-01T07:26:16;18.50;99.90
10263;DHT22;5177;50.068;8.156;2023-08-01T07:28:42;18.40;99.90
10263;DHT22;5177;50.068;8.156;2023-08-01T07:31:07;18.40;99.90
10263;DHT22;5177;50.068;8.156;2023-08-01T07:33:33;18.40;99.90
10263;DHT22;5177;50.068;8.156;2023-08-01T07:35:59;18.40;99.90
10263;DHT22;5177;50.068;8.156;2023-08-01T07:38:24;18.30;99.90
10263;DHT22;5177;50.068;8.156;2023-08-01T07:40:52;18.30;99.90
10263;DHT22;5177;50.068;8.156;2023-08-01T07:43:17;18.30;99.90
10263;DHT22;5177;50.068;8.156;2023-08-01T07:45:44;18.40;99.90
10263;DHT22;5177;50.068;8.156;2023-08-01T07:48:10;18.50;99.90
10263;DHT22;5177;50.068;8.156;2023-08-01T07:50:35;18.70;99.90
10263;DHT22;5177;50.068;8.156;2023-08-01T07:53:01;18.80;99.90
10263;DHT22;5177;50.068;8.156;2023-08-01T07:55:26;19.00;99.90
10263;DHT22;5177;50.068;8.156;2023-08-01T07:57:52;19.30;99.90
10263;DHT22;5177;50.068;8.156;2023-08-01T08:00:17;19.50;99.90
10263;DHT22;5177;50.068;8.156;2023-08-01T08:02:43;19.60;99.90
10263;DHT22;5177;50.068;8.156;2023-08-01T08:05:09;19.80;99.90
10263;DHT22;5177;50.068;8.156;2023-08-01T08:07:38;19.90;99.90
10263;DHT22;5177;50.068;8.156;2023-08-01T08:10:04;20.10;99.90
10263;DHT22;5177;50.068;8.156;2023-08-01T08:12:30;20.30;1.00
10263;DHT22;5177;50.068;8.156;2023-08-01T08:14:56;20.20;1.00
10263;DHT22;5177;50.068;8.156;2023-08-01T08:17:21;20.20;1.00
10263;DHT22;5177;50.068;8.156;2023-08-01T08:19:47;20.30;42.90
10263;DHT22;5177;50.068;8.156;2023-08-01T08:22:12;20.60;1.00
10263;DHT22;5177;50.068;8.156;2023-08-01T08:24:38;20.70;1.00
10263;DHT22;5177;50.068;8.156;2023-08-01T08:27:04;20.90;99.90
10263;DHT22;5177;50.068;8.156;2023-08-01T08:29:30;21.00;99.90
10263;DHT22;5177;50.068;8.156;2023-08-01T08:31:55;20.90;1.00
10263;DHT22;5177;50.068;8.156;2023-08-01T08:34:21;21.00;1.00
10263;DHT22;5177;50.068;8.156;2023-08-01T08:36:46;21.10;88.60
10263;DHT22;5177;50.068;8.156;2023-08-01T08:39:12;21.20;1.00
10263;DHT22;5177;50.068;8.156;2023-08-01T08:41:47;21.40;1.00
10263;DHT22;5177;50.068;8.156;2023-08-01T08:44:16;21.60;1.00
10263;DHT22;5177;50.068;8.156;2023-08-01T08:46:43;21.70;1.00
10263;DHT22;5177;50.068;8.156;2023-08-01T08:49:09;21.90;99.90
10263;DHT22;5177;50.068;8.156;2023-08-01T08:51:35;22.00;1.00
10263;DHT22;5177;50.068;8.156;2023-08-01T08:54:01;22.30;78.80
10263;DHT22;5177;50.068;8.156;2023-08-01T08:56:27;22.50;1.00
10263;DHT22;5177;50.068;8.156;2023-08-01T08:58:53;22.50;99.90
10263;DHT22;5177;50.068;8.156;2023-08-01T09:01:19;22.60;99.90
10263;DHT22;5177;50.068;8.156;2023-08-01T09:03:44;22.80;1.00
10263;DHT22;5177;50.068;8.156;2023-08-01T09:06:16;22.70;1.00
10263;DHT22;5177;50.068;8.156;2023-08-01T09:09:24;22.80;1.00
10263;DHT22;5177;50.068;8.156;2023-08-01T09:12:04;23.10;1.00
10263;DHT22;5177;50.068;8.156;2023-08-01T09:14:22;23.00;1.00
10263;DHT22;5177;50.068;8.156;2023-08-01T09:16:48;23.00;1.00
10263;DHT22;5177;50.068;8.156;2023-08-01T09:19:17;23.00;99.90
10263;DHT22;5177;50.068;8.156;2023-08-01T09:21:43;23.20;99.90
10263;DHT22;5177;50.068;8.156;2023-08-01T09:24:13;23.20;99.90
10263;DHT22;5177;50.068;8.156;2023-08-01T09:26:39;23.40;1.00
10263;DHT22;5177;50.068;8.156;2023-08-01T09:29:04;23.50;1.00
10263;DHT22;5177;50.068;8.156;2023-08-01T09:31:31;23.60;1.00
10263;DHT22;5177;50.068;8.156;2023-08-01T09:33:57;23.50;1.00
10263;DHT22;5177;50.068;8.156;2023-08-01T09:36:23;23.70;1.00
10263;DHT22;5177;50.068;8.156;2023-08-01T09:38:49;23.80;99.90
10263;DHT22;5177;50.068;8.156;2023-08-01T09:41:18;23.80;99.90
10263;DHT22;5177;50.068;8.156;2023-08-01T09:43:44;23.60;99.90
10263;DHT22;5177;50.068;8.156;2023-08-01T09:46:11;23.50;99.90
10263;DHT22;5177;50.068;8.156;2023-08-01T09:48:36;23.40;99.90
10263;DHT22;5177;50.068;8.156;2023-08-01T09:53:31;23.40;99.90
10263;DHT22;5177;50.068;8.156;2023-08-01T09:55:57;23.50;99.90
10263;DHT22;5177;50.068;8.156;2023-08-01T09:58:24;23.40;99.90
10263;DHT22;5177;50.068;8.156;2023-08-01T10:00:51;23.70;99.20
10263;DHT22;5177;50.068;8.156;2023-08-01T10:03:17;23.70;99.90
10263;DHT22;5177;50.068;8.156;2023-08-01T10:05:43;23.80;99.90
10263;DHT22;5177;50.068;8.156;2023-08-01T10:08:09;24.20;99.90
10263;DHT22;5177;50.068;8.156;2023-08-01T10:10:34;24.40;99.90
10263;DHT22;5177;50.068;8.156;2023-08-01T10:13:00;24.30;99.90
10263;DHT22;5177;50.068;8.156;2023-08-01T10:15:26;24.20;93.30
10263;DHT22;5177;50.068;8.156;2023-08-01T10:17:53;24.00;80.90
10263;DHT22;5177;50.068;8.156;2023-08-01T10:20:19;23.80;99.90
10263;DHT22;5177;50.068;8.156;2023-08-01T10:22:46;23.80;99.90
10263;DHT22;5177;50.068;8.156;2023-08-01T10:25:13;24.00;99.90
10263;DHT22;5177;50.068;8.156;2023-08-01T10:27:38;24.10;99.90
10263;DHT22;5177;50.068;8.156;2023-08-01T10:30:06;24.10;1.00
10263;DHT22;5177;50.068;8.156;2023-08-01T10:32:33;23.90;1.00
10263;DHT22;5177;50.068;8.156;2023-08-01T10:34:59;23.60;99.90
10263;DHT22;5177;50.068;8.156;2023-08-01T10:37:25;23.60;99.90
10263;DHT22;5177;50.068;8.156;2023-08-01T10:39:57;23.90;47.20
10263;DHT22;5177;50.068;8.156;2023-08-01T10:42:24;24.20;32.10
10263;DHT22;5177;50.068;8.156;2023-08-01T10:44:50;24.20;1.00
10263;DHT22;5177;50.068;8.156;2023-08-01T10:47:24;24.20;1.00
10263;DHT22;5177;50.068;8.156;2023-08-01T10:49:50;24.20;1.00
10263;DHT22;5177;50.068;8.156;2023-08-01T10:52:19;24.30;1.00
10263;DHT22;5177;50.068;8.156;2023-08-01T10:54:46;24.10;1.00
10263;DHT22;5177;50.068;8.156;2023-08-01T10:57:15;23.90;1.00
10263;DHT22;5177;50.068;8.156;2023-08-01T10:59:42;23.70;95.70
10263;DHT22;5177;50.068;8.156;2023-08-01T11:02:08;23.70;99.90
10263;DHT22;5177;50.068;8.156;2023-08-01T11:04:33;24.20;1.00
10263;DHT22;5177;50.068;8.156;2023-08-01T11:06:59;24.30;1.00
10263;DHT22;5177;50.068;8.156;2023-08-01T11:09:25;24.40;1.00
10263;DHT22;5177;50.068;8.156;2023-08-01T11:11:55;24.60;1.00
10263;DHT22;5177;50.068;8.156;2023-08-01T11:14:25;24.80;1.00
10263;DHT22;5177;50.068;8.156;2023-08-01T11:16:51;24.80;1.00
10263;DHT22;5177;50.068;8.156;2023-08-01T11:21:44;24.50;1.00
10263;DHT22;5177;50.068;8.156;2023-08-01T11:24:10;24.60;99.90
10263;DHT22;5177;50.068;8.156;2023-08-01T11:26:36;24.90;1.00
10263;DHT22;5177;50.068;8.156;2023-08-01T11:29:05;25.10;1.00
10263;DHT22;5177;50.068;8.156;2023-08-01T11:31:30;24.90;1.00
10263;DHT22;5177;50.068;8.156;2023-08-01T11:33:56;25.00;99.90
10263;DHT22;5177;50.068;8.156;2023-08-01T11:36:24;24.80;99.90
10263;DHT22;5177;50.068;8.156;2023-08-01T11:38:50;24.80;1.00
10263;DHT22;5177;50.068;8.156;2023-08-01T11:41:15;24.80;1.00
10263;DHT22;5177;50.068;8.156;2023-08-01T11:43:41;24.70;1.00
10263;DHT22;5177;50.068;8.156;2023-08-01T11:46:07;24.50;1.00
10263;DHT22;5177;50.068;8.156;2023-08-01T11:48:32;24.40;1.00
10263;DHT22;5177;50.068;8.156;2023-08-01T11:50:58;24.60;1.00
10263;DHT22;5177;50.068;8.156;2023-08-01T11:53:24;25.20;1.00
10263;DHT22;5177;50.068;8.156;2023-08-01T11:55:50;25.40;99.90
10263;DHT22;5177;50.068;8.156;2023-08-01T12:01:17;25.20;99.90
10263;DHT22;5177;50.068;8.156;2023-08-01T12:03:44;24.70;99.90
10263;DHT22;5177;50.068;8.156;2023-08-01T12:06:10;24.50;1.00
10263;DHT22;5177;50.068;8.156;2023-08-01T12:08:37;24.30;1.00
10263;DHT22;5177;50.068;8.156;2023-08-01T12:11:03;24.30;1.00
10263;DHT22;5177;50.068;8.156;2023-08-01T12:13:28;24.60;1.00
10263;DHT22;5177;50.068;8.156;2023-08-01T12:15:55;24.90;99.90
10263;DHT22;5177;50.068;8.156;2023-08-01T12:18:24;24.80;99.90
10263;DHT22;5177;50.068;8.156;2023-08-01T12:20:50;24.60;99.90
10263;DHT22;5177;50.068;8.156;2023-08-01T12:23:15;24.40;99.90
10263;DHT22;5177;50.068;8.156;2023-08-01T12:25:41;24.60;99.90
10263;DHT22;5177;50.068;8.156;2023-08-01T12:28:06;24.40;99.90
10263;DHT22;5177;50.068;8.156;2023-08-01T12:30:32;24.20;99.90
10263;DHT22;5177;50.068;8.156;2023-08-01T12:32:58;24.20;1.00
10263;DHT22;5177;50.068;8.156;2023-08-01T12:35:26;24.50;1.00
10263;DHT22;5177;50.068;8.156;2023-08-01T12:37:52;24.70;99.90
10263;DHT22;5177;50.068;8.156;2023-08-01T12:40:19;24.70;99.90
10263;DHT22;5177;50.068;8.156;2023-08-01T12:42:44;24.70;99.90
10263;DHT22;5177;50.068;8.156;2023-08-01T12:45:10;24.60;99.90
10263;DHT22;5177;50.068;8.156;2023-08-01T12:47:35;24.90;1.00
10263;DHT22;5177;50.068;8.156;2023-08-01T12:50:01;25.00;99.90
10263;DHT22;5177;50.068;8.156;2023-08-01T12:52:26;24.80;99.90
10263;DHT22;5177;50.068;8.156;2023-08-01T12:54:52;24.80;99.90
10263;DHT22;5177;50.068;8.156;2023-08-01T12:57:17;25.40;99.90
10263;DHT22;5177;50.068;8.156;2023-08-01T12:59:43;25.50;99.90
10263;DHT22;5177;50.068;8.156;2023-08-01T13:02:10;25.70;99.90
10263;DHT22;5177;50.068;8.156;2023-08-01T13:04:36;25.70;99.90
10263;DHT22;5177;50.068;8.156;2023-08-01T13:07:02;25.80;99.90
10263;DHT22;5177;50.068;8.156;2023-08-01T13:09:27;25.60;99.90
10263;DHT22;5177;50.068;8.156;2023-08-01T13:11:52;25.80;99.90
10263;DHT22;5177;50.068;8.156;2023-08-01T13:14:18;26.40;99.90
10263;DHT22;5177;50.068;8.156;2023-08-01T13:16:44;26.80;99.90
10263;DHT22;5177;50.068;8.156;2023-08-01T13:19:09;26.40;99.90
10263;DHT22;5177;50.068;8.156;2023-08-01T13:21:35;25.70;99.90
10263;DHT22;5177;50.068;8.156;2023-08-01T13:24:00;24.80;1.00
10263;DHT22;5177;50.068;8.156;2023-08-01T13:26:33;24.30;99.90
10263;DHT22;5177;50.068;8.156;2023-08-01T13:28:59;24.40;99.90
10263;DHT22;5177;50.068;8.156;2023-08-01T13:31:25;24.40;99.90
10263;DHT22;5177;50.068;8.156;2023-08-01T13:33:50;24.60;84.10
10263;DHT22;5177;50.068;8.156;2023-08-01T13:36:19;25.00;1.00
10263;DHT22;5177;50.068;8.156;2023-08-01T13:38:44;25.00;1.00
10263;DHT22;5177;50.068;8.156;2023-08-01T13:41:10;25.20;99.90
10263;DHT22;5177;50.068;8.156;2023-08-01T13:43:35;25.20;99.90
10263;DHT22;5177;50.068;8.156;2023-08-01T13:46:01;25.40;99.90
10263;DHT22;5177;50.068;8.156;2023-08-01T13:48:32;25.20;99.90
10263;DHT22;5177;50.068;8.156;2023-08-01T13:50:58;24.70;1.00
10263;DHT22;5177;50.068;8.156;2023-08-01T13:53:24;24.30;1.00
10263;DHT22;5177;50.068;8.156;2023-08-01T13:55:49;23.70;99.90
10263;DHT22;5177;50.068;8.156;2023-08-01T13:58:15;23.40;99.90
10263;DHT22;5177;50.068;8.156;2023-08-01T14:00:40;23.30;99.90
10263;DHT22;5177;50.068;8.156;2023-08-01T14:03:06;23.30;99.90
10263;DHT22;5177;50.068;8.156;2023-08-01T14:05:31;23.50;99.90
10263;DHT22;5177;50.068;8.156;2023-08-01T14:07:57;23.80;99.90
10263;DHT22;5177;50.068;8.156;2023-08-01T14:10:22;24.30;99.90
10263;DHT22;5177;50.068;8.156;2023-08-01T14:12:48;24.20;15.80
10263;DHT22;5177;50.068;8.156;2023-08-01T14:15:13;24.00;1.00
10263;DHT22;5177;50.068;8.156;2023-08-01T14:17:39;23.60;99.90
10263;DHT22;5177;50.068;8.156;2023-08-01T14:20:05;23.30;99.90
10263;DHT22;5177;50.068;8.156;2023-08-01T14:22:31;23.20;1.00
10263;DHT22;5177;50.068;8.156;2023-08-01T14:24:56;23.00;1.00
10263;DHT22;5177;50.068;8.156;2023-08-01T14:27:22;23.00;1.00
10263;DHT22;5177;50.068;8.156;2023-08-01T14:29:47;22.80;1.00
10263;DHT22;5177;50.068;8.156;2023-08-01T14:32:14;22.50;99.90
10263;DHT22;5177;50.068;8.156;2023-08-01T14:34:39;22.20;1.00
10263;DHT22;5177;50.068;8.156;2023-08-01T14:37:05;22.10;1.00
10263;DHT22;5177;50.068;8.156;2023-08-01T14:39:30;22.20;1.00
10263;DHT22;5177;50.068;8.156;2023-08-01T14:41:56;22.40;99.90
10263;DHT22;5177;50.068;8.156;2023-08-01T14:44:21;22.70;99.90
10263;DHT22;5177;50.068;8.156;2023-08-01T14:46:47;24.10;1.00
10263;DHT22;5177;50.068;8.156;2023-08-01T14:49:12;24.80;99.90
10263;DHT22;5177;50.068;8.156;2023-08-01T14:51:38;24.90;99.90
10263;DHT22;5177;50.068;8.156;2023-08-01T14:54:03;24.70;99.90
10263;DHT22;5177;50.068;8.156;2023-08-01T14:56:29;24.40;99.90
10263;DHT22;5177;50.068;8.156;2023-08-01T14:58:56;24.30;99.90
10263;DHT22;5177;50.068;8.156;2023-08-01T15:01:22;24.60;16.50
10263;DHT22;5177;50.068;8.156;2023-08-01T15:03:48;24.40;30.50
10263;DHT22;5177;50.068;8.156;2023-08-01T15:06:13;24.20;99.90
10263;DHT22;5177;50.068;8.156;2023-08-01T15:08:40;23.70;99.90
10263;DHT22;5177;50.068;8.156;2023-08-01T15:11:06;23.30;99.90
10263;DHT22;5177;50.068;8.156;2023-08-01T15:13:32;22.90;1.00
10263;DHT22;5177;50.068;8.156;2023-08-01T15:15:58;22.60;68.00
10263;DHT22;5177;50.068;8.156;2023-08-01T15:18:23;22.20;99.90
10263;DHT22;5177;50.068;8.156;2023-08-01T15:20:49;22.20;99.90
10263;DHT22;5177;50.068;8.156;2023-08-01T15:23:14;22.00;99.90
10263;DHT22;5177;50.068;8.156;2023-08-01T15:25:40;22.10;1.00
10263;DHT22;5177;50.068;8.156;2023-08-01T15:28:05;22.30;78.00
10263;DHT22;5177;50.068;8.156;2023-08-01T15:30:31;22.30;1.00
10263;DHT22;5177;50.068;8.156;2023-08-01T15:32:57;22.10;1.00
10263;DHT22;5177;50.068;8.156;2023-08-01T15:35:31;21.90;1.00
10263;DHT22;5177;50.068;8.156;2023-08-01T15:37:57;21.70;99.90
10263;DHT22;5177;50.068;8.156;2023-08-01T15:40:22;21.40;1.00
10263;DHT22;5177;50.068;8.156;2023-08-01T15:42:48;21.20;99.90
10263;DHT22;5177;50.068;8.156;2023-08-01T15:45:13;21.30;1.00
10263;DHT22;5177;50.068;8.156;2023-08-01T15:47:39;21.40;99.90
10263;DHT22;5177;50.068;8.156;2023-08-01T15:50:04;21.80;1.00